Red House, VA (23963)

6:36 PM EDT on September 18, 2014 (GMT -0400)
Hat Creek | Change Station
CLOSE
Current Station
Personal Weather Station
Location: Brookneal, VA
Elevation: 541 ft
Nearby Weather Stations

Elev 541 ft 37.10 °N, 78.92 °W | Updated 1 minute ago

Mostly Cloudy
Mostly Cloudy
71.7 °F
Feels Like 73 °F
N
0.0
Wind Variable Wind from South

Today
High -- | Low -- °F
--% Chance of Precip.
Yesterday
High -- | Low -- °F
Precip. -- in
6:59 AM 7:18 PM
Waning Crescent, 24% visible
Pressure 30.00 in
Visibility 10.0 miles
Clouds Mostly Cloudy 11000 ft
Heat Index 73 °F
Dew Point 65 °F
Humidity 78%
Rainfall 0.00 in
Snow Depth Not available.
UV 0.0 out of 12
Pollen 6.10 out of 12
Air Quality Not available.
Flu Activity Not available.
METAR KLYH 182154Z 20006KT 10SM BKN110 23/16 A3001 RMK AO2 SLP157 T02280161

More Conditions Fewer Conditions

Pressure 30.00 in
Visibility 10.0 miles
Clouds Mostly Cloudy 11000 ft
Heat Index 73 °F
Dew Point 65 °F
Humidity 78%
Rainfall 0.00 in
Snow Depth Not available.
UV 0.0 out of 12
Pollen 6.10 out of 12
Air Quality Not available.
Flu Activity Not available.
METAR KLYH 182154Z 20006KT 10SM BKN110 23/16 A3001 RMK AO2 SLP157 T02280161

More Conditions Fewer Conditions

10-Day Weather Forecast

Almanac

Astronomy

Sep. 18, 2014 Rise Set
Actual Time 6:59 AM EDT 7:18 PM EDT
Civil Twilight 6:33 AM EDT 7:44 PM EDT
Nautical Twilight 6:03 AM EDT 8:14 PM EDT
Astronomical Twilight 5:32 AM EDT 8:45 PM EDT
Moon 1:55 AM EDT 4:03 PM EDT
Length of Visible Light 13h 10m
Length of Day
12h 18m
Tomorrow will be 2m 21s shorter.
Waning Crescent, 24% of the Moon is Illuminated
Today
Waning Crescent
Sep 24
New
Oct 1
First Quarter
Oct 8
Full
Oct 15
Last Quarter

Today's Extremes

State Highs State Lows

Community

WunderPhotos

Upload Photos

1,754,457 photos uploaded!

WunderBlogs® & News

Nearby

Snow Depth

Station Depth Elevation
No new snow has been reported.

Earthquake Activity

City Distance Mag. Time & Date
No recent earthquake activity has been reported nearby.
Minimum magnitude displayed is 2.5.

Coastal Water Temperatures

Place Temperature
No Stations Reporting

Nearby Weather Stations